createdAt,value
2022-09-28T00:01:19.995Z,2.38
2022-09-28T00:03:50.401Z,2.90
2022-09-28T00:06:21.858Z,2.15
2022-09-28T00:08:50.022Z,1.90
2022-09-28T00:11:19.957Z,2.20
2022-09-28T00:13:51.363Z,2.50
2022-09-28T00:16:23.054Z,2.22
2022-09-28T00:18:51.859Z,1.73
2022-09-28T00:21:23.056Z,1.92
2022-09-28T00:23:55.874Z,2.07
2022-09-28T00:26:24.492Z,2.30
2022-09-28T00:28:54.318Z,2.15
2022-09-28T00:31:23.001Z,2.42
2022-09-28T00:33:52.262Z,2.20
2022-09-28T00:36:20.919Z,2.97
2022-09-28T00:38:49.262Z,2.10
2022-09-28T00:41:17.620Z,2.25
2022-09-28T00:43:45.755Z,2.60
2022-09-28T00:46:22.548Z,2.30
2022-09-28T00:49:01.579Z,2.75
2022-09-28T00:51:31.561Z,2.42
2022-09-28T00:54:02.464Z,2.58
2022-09-28T00:56:34.134Z,2.58
2022-09-28T00:59:02.794Z,2.88
2022-09-28T01:01:31.140Z,3.13
2022-09-28T01:04:00.279Z,3.00
2022-09-28T01:06:31.742Z,2.60
2022-09-28T01:09:04.986Z,2.83
2022-09-28T01:11:35.773Z,2.63
2022-09-28T01:14:09.710Z,2.72
2022-09-28T01:16:56.100Z,3.10
2022-09-28T01:20:06.943Z,3.28
2022-09-28T01:23:06.962Z,3.60
2022-09-28T01:25:41.786Z,4.35
2022-09-28T01:28:15.080Z,3.30
2022-09-28T01:31:09.372Z,3.25
2022-09-28T01:33:51.653Z,3.15
2022-09-28T01:36:27.460Z,2.90
2022-09-28T01:39:05.030Z,3.08
2022-09-28T01:41:35.548Z,2.85
2022-09-28T01:44:08.750Z,2.88
2022-09-28T01:46:47.235Z,2.70
2022-09-28T01:49:24.595Z,2.08
2022-09-28T01:52:09.633Z,2.50
2022-09-28T01:54:56.279Z,2.78
2022-09-28T01:58:06.453Z,3.45
2022-09-28T02:00:36.676Z,4.78
2022-09-28T02:03:37.744Z,5.07
2022-09-28T02:06:34.403Z,4.78
2022-09-28T02:09:15.012Z,4.35
2022-09-28T02:11:53.361Z,4.03
2022-09-28T02:14:22.287Z,3.65
2022-09-28T02:16:54.211Z,4.10
2022-09-28T02:19:30.823Z,3.42
2022-09-28T02:22:05.125Z,3.50
2022-09-28T02:24:47.033Z,2.90
2022-09-28T02:27:30.017Z,3.33
2022-09-28T02:29:58.276Z,3.35
2022-09-28T02:32:29.071Z,3.67
2022-09-28T02:34:57.548Z,2.35
2022-09-28T02:37:27.163Z,2.65
2022-09-28T02:39:55.484Z,2.13
2022-09-28T02:42:23.728Z,2.50
2022-09-28T02:44:57.839Z,2.42
2022-09-28T02:47:54.369Z,3.22
2022-09-28T02:50:49.642Z,3.83
2022-09-28T02:53:40.621Z,3.50
2022-09-28T02:56:39.711Z,3.08
2022-09-28T02:59:20.021Z,3.17
2022-09-28T03:02:03.318Z,3.17
2022-09-28T03:04:42.302Z,3.10
2022-09-28T03:07:51.022Z,3.75
2022-09-28T03:10:36.775Z,4.07
2022-09-28T03:13:06.408Z,3.65
2022-09-28T03:15:37.051Z,3.35
2022-09-28T03:18:05.508Z,3.25
2022-09-28T03:20:34.714Z,3.30
2022-09-28T03:23:25.520Z,2.78
2022-09-28T03:25:53.963Z,2.90
2022-09-28T03:28:22.603Z,3.00
2022-09-28T03:30:51.350Z,3.28
2022-09-28T03:33:21.396Z,3.20
2022-09-28T03:35:51.183Z,2.92
2022-09-28T03:38:20.054Z,2.95
2022-09-28T03:40:56.631Z,2.90
2022-09-28T03:43:26.510Z,3.10
2022-09-28T03:46:02.914Z,3.25
2022-09-28T03:48:36.198Z,2.83
2022-09-28T03:51:06.742Z,3.15
2022-09-28T03:53:35.716Z,2.50
2022-09-28T03:56:09.616Z,3.10
2022-09-28T03:58:38.487Z,3.50
2022-09-28T04:01:14.102Z,3.33
2022-09-28T04:03:46.901Z,3.03
2022-09-28T04:06:15.831Z,3.00
2022-09-28T04:08:44.265Z,3.40
2022-09-28T04:11:12.698Z,3.33
2022-09-28T04:13:41.407Z,3.72
2022-09-28T04:16:12.367Z,4.90
2022-09-28T04:18:44.575Z,4.85
2022-09-28T04:21:34.419Z,4.70
2022-09-28T04:24:10.022Z,5.32
2022-09-28T04:26:38.461Z,4.22
2022-09-28T04:29:07.075Z,3.17
2022-09-28T04:31:49.916Z,3.30
2022-09-28T04:34:22.766Z,3.22
2022-09-28T04:36:51.305Z,3.00
2022-09-28T04:39:20.279Z,2.35
2022-09-28T04:41:54.506Z,3.35
2022-09-28T04:44:22.745Z,2.95
2022-09-28T04:46:56.818Z,2.75
2022-09-28T04:49:30.821Z,2.97
2022-09-28T04:52:18.366Z,2.90
2022-09-28T04:54:49.884Z,5.28
2022-09-28T04:57:18.390Z,4.20
2022-09-28T04:59:46.423Z,3.35
2022-09-28T05:02:14.607Z,3.30
2022-09-28T05:05:14.749Z,4.07
2022-09-28T05:08:09.090Z,5.53
2022-09-28T05:10:37.501Z,4.15
2022-09-28T05:13:06.122Z,4.97
2022-09-28T05:15:38.731Z,5.20
2022-09-28T05:18:07.856Z,7.18
2022-09-28T05:20:58.579Z,9.30
2022-09-28T05:23:27.633Z,9.55
2022-09-28T05:26:02.922Z,11.27
2022-09-28T05:28:33.486Z,10.20
2022-09-28T05:31:20.233Z,4.95
2022-09-28T05:34:06.619Z,3.45
2022-09-28T05:36:35.193Z,2.78
2022-09-28T05:39:03.383Z,3.40
2022-09-28T05:41:32.137Z,3.65
2022-09-28T05:44:01.636Z,3.50
2022-09-28T05:46:31.311Z,2.90
2022-09-28T05:49:02.976Z,3.35
2022-09-28T05:51:31.544Z,3.78
2022-09-28T05:54:04.685Z,3.78
2022-09-28T05:56:35.510Z,4.35
2022-09-28T05:59:06.546Z,4.35
2022-09-28T06:01:34.925Z,4.35
2022-09-28T06:04:08.847Z,5.43
2022-09-28T06:06:38.054Z,6.75
2022-09-28T06:09:06.168Z,6.28
2022-09-28T06:11:47.113Z,5.78
2022-09-28T06:14:28.602Z,4.67
2022-09-28T06:16:57.085Z,4.40
2022-09-28T06:19:25.464Z,5.28
2022-09-28T06:22:11.858Z,5.28
2022-09-28T06:24:47.385Z,6.95
2022-09-28T06:27:15.721Z,7.10
2022-09-28T06:29:43.771Z,7.10
2022-09-28T06:32:13.333Z,7.97
2022-09-28T06:34:42.327Z,6.82
2022-09-28T06:37:10.656Z,6.07
2022-09-28T06:39:38.808Z,6.80
2022-09-28T06:42:07.051Z,7.15
2022-09-28T06:44:53.560Z,6.55
2022-09-28T06:47:38.509Z,7.32
2022-09-28T06:50:30.150Z,7.50
2022-09-28T06:53:28.425Z,7.90
2022-09-28T06:56:16.875Z,7.90
2022-09-28T06:58:46.051Z,8.32
2022-09-28T07:01:14.610Z,8.07
2022-09-28T07:03:59.440Z,8.50
2022-09-28T07:06:49.264Z,8.98
2022-09-28T07:09:55.229Z,7.97
2022-09-28T07:15:27.113Z,7.75
2022-09-28T07:18:05.972Z,7.25
2022-09-28T07:20:44.963Z,7.93
2022-09-28T07:23:19.801Z,7.32
2022-09-28T07:26:09.041Z,6.70
2022-09-28T07:28:56.144Z,7.22
2022-09-28T07:31:43.426Z,6.50
2022-09-28T07:34:34.472Z,6.97
2022-09-28T07:37:12.271Z,10.85
2022-09-28T07:39:41.536Z,10.93
2022-09-28T07:42:09.938Z,11.30
2022-09-28T07:44:38.094Z,13.10
2022-09-28T07:47:06.341Z,10.98
2022-09-28T07:49:57.680Z,10.02
2022-09-28T07:52:45.978Z,9.00
2022-09-28T07:55:40.129Z,7.32
2022-09-28T07:58:34.351Z,8.05
2022-09-28T08:01:31.622Z,7.53
2022-09-28T08:04:01.417Z,6.15
2022-09-28T08:06:31.289Z,6.65
2022-09-28T08:08:59.724Z,5.15
2022-09-28T08:11:47.807Z,6.18
2022-09-28T08:14:25.369Z,5.45
2022-09-28T08:17:05.180Z,5.43
2022-09-28T08:19:41.788Z,5.90
2022-09-28T08:22:10.080Z,6.00
2022-09-28T08:24:38.590Z,5.63
2022-09-28T08:27:07.312Z,6.07
2022-09-28T08:29:36.447Z,5.20
2022-09-28T08:32:36.792Z,5.43
2022-09-28T08:35:23.321Z,5.97
2022-09-28T08:38:09.147Z,5.88
2022-09-28T08:41:08.935Z,6.88
2022-09-28T08:44:17.459Z,7.10
2022-09-28T08:47:34.454Z,6.57
2022-09-28T08:50:22.373Z,7.57
2022-09-28T08:53:23.996Z,8.02
2022-09-28T08:57:02.074Z,8.77
2022-09-28T08:59:59.166Z,7.38
2022-09-28T09:02:37.904Z,5.93
2022-09-28T09:05:24.048Z,6.25
2022-09-28T09:08:13.906Z,6.85
2022-09-28T09:10:53.153Z,5.75
2022-09-28T09:14:03.066Z,6.47
2022-09-28T09:16:47.327Z,4.95
2022-09-28T09:20:23.166Z,5.68
2022-09-28T09:23:06.779Z,5.18
2022-09-28T09:25:43.351Z,5.20
2022-09-28T09:28:37.724Z,6.45
2022-09-28T09:31:36.194Z,6.97
2022-09-28T09:34:06.797Z,6.60
2022-09-28T09:37:11.239Z,6.20
2022-09-28T09:39:54.752Z,6.22
2022-09-28T09:43:02.756Z,5.30
2022-09-28T09:46:29.431Z,4.65
2022-09-28T09:49:25.198Z,4.30
2022-09-28T09:52:24.889Z,3.90
2022-09-28T09:54:57.671Z,3.95
2022-09-28T09:57:52.282Z,4.10
2022-09-28T10:00:36.799Z,4.10
2022-09-28T10:03:20.810Z,3.53
2022-09-28T10:05:56.760Z,3.55
2022-09-28T10:08:27.576Z,3.70
2022-09-28T10:11:16.127Z,4.85
2022-09-28T10:13:49.377Z,5.07
2022-09-28T10:16:40.727Z,6.40
2022-09-28T10:19:17.508Z,5.95
2022-09-28T10:22:07.518Z,6.32
2022-09-28T10:24:41.610Z,6.72
2022-09-28T10:27:19.256Z,7.47
2022-09-28T10:29:54.514Z,6.82
2022-09-28T10:32:25.954Z,5.30
2022-09-28T10:35:14.886Z,5.25
2022-09-28T10:38:01.906Z,4.90
2022-09-28T10:41:00.367Z,5.03
2022-09-28T10:43:58.256Z,5.10
2022-09-28T10:46:26.882Z,4.78
2022-09-28T10:49:03.563Z,5.15
2022-09-28T10:51:44.527Z,4.68
2022-09-28T10:54:26.022Z,4.43
2022-09-28T10:56:55.971Z,4.05
2022-09-28T10:59:46.872Z,3.53
2022-09-28T11:02:41.855Z,4.28
2022-09-28T11:05:25.965Z,4.10
2022-09-28T11:08:00.941Z,4.43
2022-09-28T11:10:36.886Z,4.13
2022-09-28T11:13:15.650Z,3.08
2022-09-28T11:15:51.571Z,2.78
2022-09-28T11:21:44.621Z,3.78
2022-09-28T11:24:19.140Z,3.47
2022-09-28T11:26:56.683Z,2.72
2022-09-28T11:29:43.929Z,2.40
2022-09-28T11:32:18.167Z,4.50
2022-09-28T11:35:07.495Z,3.58
2022-09-28T11:37:45.344Z,3.50
2022-09-28T11:40:34.792Z,3.92
2022-09-28T11:43:03.107Z,4.38
2022-09-28T11:45:31.599Z,5.13
2022-09-28T11:48:09.947Z,2.75
2022-09-28T11:50:50.671Z,2.70
2022-09-28T11:53:39.777Z,3.05
2022-09-28T11:56:28.867Z,3.38
2022-09-28T11:59:13.177Z,4.15
2022-09-28T12:02:21.255Z,5.20
2022-09-28T12:05:03.605Z,4.35
2022-09-28T12:07:41.033Z,3.28
2022-09-28T12:10:21.295Z,3.10
2022-09-28T12:13:22.671Z,2.03
2022-09-28T12:19:46.983Z,2.70
2022-09-28T12:22:40.099Z,3.15
2022-09-28T12:25:16.805Z,2.22
2022-09-28T12:27:53.908Z,2.30
2022-09-28T12:30:24.187Z,2.58
2022-09-28T12:33:06.288Z,2.20
2022-09-28T12:36:02.021Z,1.80
2022-09-28T12:39:18.076Z,2.05
2022-09-28T12:42:13.415Z,2.67
2022-09-28T12:45:06.733Z,1.95
2022-09-28T12:47:47.376Z,1.77
2022-09-28T12:50:42.706Z,1.48
2022-09-28T12:53:38.201Z,1.60
2022-09-28T12:56:16.824Z,1.92
2022-09-28T12:58:56.608Z,2.78
2022-09-28T13:01:58.997Z,1.80
2022-09-28T13:04:27.265Z,1.55
2022-09-28T13:07:14.174Z,1.98
2022-09-28T13:09:54.612Z,1.60
2022-09-28T13:12:31.177Z,1.10
2022-09-28T13:15:17.412Z,1.30
2022-09-28T13:17:54.689Z,1.20
2022-09-28T13:20:44.659Z,1.80
2022-09-28T13:23:24.410Z,1.92
2022-09-28T13:26:22.025Z,1.48
2022-09-28T13:28:53.094Z,1.50
2022-09-28T13:31:29.148Z,1.73
2022-09-28T13:34:04.188Z,1.92
2022-09-28T13:36:32.462Z,2.40
2022-09-28T13:39:01.416Z,2.15
2022-09-28T13:41:34.215Z,2.20
2022-09-28T13:44:11.951Z,1.60
2022-09-28T13:46:51.965Z,4.13
2022-09-28T13:49:41.806Z,1.67
2022-09-28T13:52:55.132Z,1.88
2022-09-28T13:55:33.629Z,1.33
2022-09-28T13:58:20.486Z,2.00
2022-09-28T14:01:00.409Z,1.70
2022-09-28T14:03:54.516Z,1.80
2022-09-28T14:06:25.818Z,2.63
2022-09-28T14:09:18.723Z,2.40
2022-09-28T14:12:01.852Z,1.45
2022-09-28T14:14:48.634Z,1.88
2022-09-28T14:17:22.913Z,2.00
2022-09-28T14:20:00.858Z,2.17
2022-09-28T14:22:55.386Z,1.60
2022-09-28T14:25:43.897Z,1.30
2022-09-28T14:28:41.985Z,1.85
2022-09-28T14:31:18.052Z,1.75
2022-09-28T14:33:59.058Z,1.60
2022-09-28T14:36:36.540Z,1.48
2022-09-28T14:39:05.063Z,1.73
2022-09-28T14:41:38.853Z,1.88
2022-09-28T14:44:12.241Z,1.15
2022-09-28T14:46:48.337Z,3.28
2022-09-28T14:49:19.697Z,1.80
2022-09-28T14:51:57.127Z,1.92
2022-09-28T14:54:38.210Z,1.50
2022-09-28T14:57:31.713Z,2.25
2022-09-28T15:00:01.229Z,2.30
2022-09-28T15:02:33.484Z,1.35
2022-09-28T15:05:07.586Z,1.55
2022-09-28T15:07:53.420Z,1.95
2022-09-28T15:10:37.266Z,1.73
2022-09-28T15:13:27.185Z,1.42
2022-09-28T15:16:17.213Z,1.60
2022-09-28T15:19:12.954Z,1.45
2022-09-28T15:21:43.133Z,1.83
2022-09-28T15:24:29.725Z,1.90
2022-09-28T15:26:58.442Z,2.35
2022-09-28T15:29:27.269Z,1.58
2022-09-28T15:31:55.631Z,2.50
2022-09-28T15:34:32.047Z,1.38
2022-09-28T15:37:00.655Z,2.30
2022-09-28T15:39:33.409Z,2.72
2022-09-28T15:42:01.890Z,1.80
2022-09-28T15:44:33.345Z,2.05
2022-09-28T15:47:28.392Z,1.73
2022-09-28T15:50:20.125Z,3.70
2022-09-28T15:52:57.857Z,2.67
2022-09-28T15:55:36.510Z,1.95
2022-09-28T15:58:21.901Z,1.70
2022-09-28T16:00:52.366Z,2.33
2022-09-28T16:03:29.602Z,2.50
2022-09-28T16:06:10.979Z,2.00
2022-09-28T16:08:44.791Z,1.88
2022-09-28T16:11:24.820Z,1.88
2022-09-28T16:14:05.880Z,1.77
2022-09-28T16:16:39.526Z,1.90
2022-09-28T16:19:36.687Z,1.88
2022-09-28T16:22:08.417Z,3.65
2022-09-28T16:27:28.665Z,3.22
2022-09-28T16:30:23.104Z,2.45
2022-09-28T16:33:24.332Z,2.08
2022-09-28T16:35:53.260Z,2.40
2022-09-28T16:38:21.619Z,2.60
2022-09-28T16:40:52.675Z,2.50
2022-09-28T16:43:32.433Z,1.90
2022-09-28T16:46:09.536Z,2.00
2022-09-28T16:48:48.786Z,1.90
2022-09-28T16:51:21.306Z,2.00
2022-09-28T16:53:49.662Z,2.33
2022-09-28T16:56:17.935Z,2.80
2022-09-28T16:58:46.087Z,2.97
2022-09-28T17:01:14.303Z,2.75
2022-09-28T17:03:42.571Z,2.53
2022-09-28T17:06:13.543Z,2.15
2022-09-28T17:08:41.739Z,2.50
2022-09-28T17:11:17.958Z,2.90
2022-09-28T17:13:48.709Z,2.50
2022-09-28T17:16:49.353Z,2.90
2022-09-28T17:19:19.232Z,3.50
2022-09-28T17:21:48.057Z,2.90
2022-09-28T17:24:16.357Z,3.17
2022-09-28T17:26:46.262Z,4.90
2022-09-28T17:29:15.685Z,4.95
2022-09-28T17:31:45.407Z,2.75
2022-09-28T17:34:15.315Z,3.20
2022-09-28T17:36:44.912Z,4.03
2022-09-28T17:42:04.015Z,3.75
2022-09-28T17:44:32.382Z,3.90
2022-09-28T17:47:00.604Z,4.82
2022-09-28T17:49:28.635Z,6.60
2022-09-28T17:51:56.973Z,4.20
2022-09-28T17:54:25.350Z,6.38
2022-09-28T17:56:53.881Z,13.73
2022-09-28T17:59:22.104Z,7.97
2022-09-28T18:01:50.299Z,6.40
2022-09-28T18:04:47.199Z,7.25
2022-09-28T18:07:06.756Z,6.60
2022-09-28T18:09:34.999Z,4.60
2022-09-28T18:12:05.730Z,4.60
2022-09-28T18:14:34.021Z,5.32
2022-09-28T18:17:02.147Z,4.28
2022-09-28T18:19:32.367Z,3.65
2022-09-28T18:22:01.007Z,3.22
2022-09-28T18:24:29.292Z,4.10
2022-09-28T18:26:57.622Z,3.90
2022-09-28T18:29:26.709Z,8.25
2022-09-28T18:31:56.219Z,5.30
2022-09-28T18:34:24.643Z,3.55
2022-09-28T18:36:52.809Z,3.95
2022-09-28T18:39:21.057Z,3.53
2022-09-28T18:41:49.172Z,3.60
2022-09-28T18:44:17.328Z,7.80
2022-09-28T18:46:45.625Z,8.48
2022-09-28T18:49:13.778Z,8.20
2022-09-28T18:51:42.034Z,8.13
2022-09-28T18:54:10.241Z,7.57
2022-09-28T18:56:38.485Z,6.18
2022-09-28T18:59:11.942Z,7.80
2022-09-28T19:01:41.053Z,7.45
2022-09-28T19:04:11.011Z,9.02
2022-09-28T19:06:40.873Z,7.18
2022-09-28T19:09:09.501Z,6.63
2022-09-28T19:11:37.988Z,5.43
2022-09-28T19:14:06.208Z,5.50
2022-09-28T19:16:34.316Z,7.15
2022-09-28T19:19:02.673Z,3.20
2022-09-28T19:21:30.991Z,6.88
2022-09-28T19:24:03.136Z,7.68
2022-09-28T19:29:00.112Z,4.40
2022-09-28T19:31:28.913Z,3.97
2022-09-28T19:33:57.472Z,3.90
2022-09-28T19:36:26.995Z,4.10
2022-09-28T19:38:56.942Z,3.08
2022-09-28T19:41:27.720Z,3.35
2022-09-28T19:43:55.859Z,8.52
2022-09-28T19:46:24.179Z,7.82
2022-09-28T19:48:52.510Z,14.05
2022-09-28T19:51:20.686Z,30.08
2022-09-28T19:53:48.795Z,35.10
2022-09-28T19:56:17.097Z,31.25
2022-09-28T19:58:45.270Z,22.23
2022-09-28T20:01:13.739Z,8.63
2022-09-28T20:03:42.006Z,4.22
2022-09-28T20:06:13.824Z,3.10
2022-09-28T20:08:44.893Z,5.57
2022-09-28T20:11:13.007Z,4.00
2022-09-28T20:13:41.173Z,2.72
2022-09-28T20:16:11.963Z,6.28
2022-09-28T20:18:42.115Z,11.52
2022-09-28T20:21:15.941Z,5.68
2022-09-28T20:23:46.665Z,6.05
2022-09-28T20:26:16.182Z,3.33
2022-09-28T20:28:44.624Z,3.42
2022-09-28T20:31:17.306Z,4.20
2022-09-28T20:33:45.691Z,7.47
2022-09-28T20:36:19.766Z,8.48
2022-09-28T20:38:49.755Z,3.72
2022-09-28T20:42:22.458Z,10.95
2022-09-28T20:44:50.877Z,6.28
2022-09-28T20:47:19.309Z,6.60
2022-09-28T20:49:47.533Z,36.88
2022-09-28T20:52:15.905Z,49.53
2022-09-28T20:54:44.088Z,16.83
2022-09-28T20:57:12.351Z,24.05
2022-09-28T20:59:40.555Z,20.88
2022-09-28T21:02:11.999Z,34.45
2022-09-28T21:04:40.226Z,79.63
2022-09-28T21:07:09.379Z,94.38
2022-09-28T21:09:40.705Z,44.45
2022-09-28T21:12:08.849Z,31.07
2022-09-28T21:14:37.001Z,103.38
2022-09-28T21:17:05.204Z,28.48
2022-09-28T21:19:34.738Z,31.45
2022-09-28T21:22:03.011Z,37.05
2022-09-28T21:24:31.156Z,40.55
2022-09-28T21:26:59.291Z,21.70
2022-09-28T21:29:27.702Z,34.33
2022-09-28T21:31:55.798Z,24.63
2022-09-28T21:34:24.104Z,22.08
2022-09-28T21:36:52.711Z,26.70
2022-09-28T21:39:21.080Z,38.55
2022-09-28T21:41:49.540Z,28.88
2022-09-28T21:44:17.791Z,22.10
2022-09-28T21:46:46.042Z,18.77
2022-09-28T21:49:14.419Z,17.42
2022-09-28T21:51:42.725Z,28.35
2022-09-28T21:54:10.863Z,17.98
2022-09-28T21:56:39.097Z,4.88
2022-09-28T21:59:07.391Z,28.48
2022-09-28T22:01:35.704Z,5.22
2022-09-28T22:04:04.576Z,6.80
2022-09-28T22:06:32.964Z,6.32
2022-09-28T22:09:01.037Z,12.13
2022-09-28T22:11:29.821Z,4.35
2022-09-28T22:13:59.770Z,6.68
2022-09-28T22:16:30.906Z,7.75
2022-09-28T22:18:59.921Z,8.05
2022-09-28T22:21:32.916Z,3.13
2022-09-28T22:24:03.545Z,8.13
2022-09-28T22:26:33.407Z,12.75
2022-09-28T22:29:04.659Z,3.45
2022-09-28T22:31:36.311Z,13.20
2022-09-28T22:34:05.960Z,2.85
2022-09-28T22:36:34.840Z,2.65
2022-09-28T22:39:03.680Z,10.23
2022-09-28T22:41:32.463Z,3.90
2022-09-28T22:44:01.029Z,5.07
2022-09-28T22:46:30.372Z,4.90
2022-09-28T22:49:00.013Z,4.88
2022-09-28T22:51:29.780Z,9.98
2022-09-28T22:53:58.293Z,9.20
2022-09-28T22:56:26.642Z,19.40
2022-09-28T22:58:55.179Z,14.88
2022-09-28T23:01:26.558Z,8.63
2022-09-28T23:03:56.202Z,14.70
2022-09-28T23:06:26.836Z,6.93
2022-09-28T23:08:55.056Z,10.18
2022-09-28T23:11:23.499Z,9.98
2022-09-28T23:13:53.259Z,12.77
2022-09-28T23:16:22.025Z,17.08
2022-09-28T23:18:50.118Z,12.23
2022-09-28T23:21:20.355Z,11.60
2022-09-28T23:23:54.022Z,10.40
2022-09-28T23:26:26.493Z,11.40
2022-09-28T23:28:55.079Z,6.70
2022-09-28T23:31:29.072Z,12.27
2022-09-28T23:34:05.845Z,12.75
2022-09-28T23:36:34.762Z,8.70
2022-09-28T23:39:03.392Z,10.95
2022-09-28T23:41:31.707Z,14.20
2022-09-28T23:43:59.964Z,9.23
2022-09-28T23:46:28.201Z,8.57
2022-09-28T23:48:56.589Z,7.78
2022-09-28T23:51:24.808Z,9.65
2022-09-28T23:53:53.094Z,9.00
2022-09-28T23:56:21.392Z,10.15
2022-09-28T23:58:49.451Z,5.60
